Mentor, OH (44061)

8:34 PM EST on January 25, 2015 (GMT -0500)
Lake Grove Estates | Change Station
CLOSE
Current Station
Personal Weather Station
Location: Mentor, OH
Elevation: 614 ft
Nearby Weather Stations

Elev 614 ft 41.71 °N, 81.35 °W | Updated 3 seconds ago

Overcast
Overcast
20.5 °F
Feels Like 9 °F
N
10.7
Wind Variable Wind from North
Gusts 17.4 mph

Today
High -- | Low -- °F
--% Chance of Precip.
Yesterday
High -- | Low -- °F
Precip. -- in
7:43 AM 5:31 PM
Waxing Crescent, 37% visible
Pressure 29.90 in
Visibility 10.0 miles
Clouds Overcast 3000 ft
Windchill 9 °F
Dew Point 12 °F
Humidity 68%
Rainfall 0.00 in
Snow Depth Not available.
UV 0 out of 12
Pollen .10 out of 12
Air Quality Not available.
Flu Activity Not available.
METAR KCGF 260045Z 06013KT 10SM -SN OVC030 M06/M08 A2990

More Conditions Fewer Conditions

Pressure 29.90 in
Visibility 10.0 miles
Clouds Overcast 3000 ft
Windchill 9 °F
Dew Point 12 °F
Humidity 68%
Rainfall 0.00 in
Snow Depth Not available.
UV 0 out of 12
Pollen .10 out of 12
Air Quality Not available.
Flu Activity Not available.
METAR KCGF 260045Z 06013KT 10SM -SN OVC030 M06/M08 A2990

More Conditions Fewer Conditions

10-Day Weather Forecast

Almanac

Astronomy

Jan. 25, 2015 Rise Set
Actual Time
Civil Twilight
Nautical Twilight
Astronomical Twilight
Moon
Length of Visible Light
Length of Day
Tomorrow will be .
, % of the Moon is Illuminated

Today's Extremes

State Highs State Lows

Community

WunderPhotos

Upload Photos

1,790,039 photos uploaded!

WunderBlogs® & News

Nearby

Air Quality

  Air Quality AQ Index Pollutant
Not available.

Snow Depth

Station Depth Elevation

Earthquake Activity

City Distance Mag. Time & Date
Minimum magnitude displayed is 2.5.

Coastal Water Temperatures

Place Temperature

Nearby Weather Stations